Relevés horaires Matro (Suisse)


Relevés horaires à Matro - Mardi 01 Juill. 2014
Heure UTC1 Température [°C] Vent [km/h] Hum. [%] Pres.4 [hPa] Visi. [Km] Nébu. [octa] Préc.5 [mm] Cond.
2m. Res. Ros. Dir.2 Vit. Moy. Raf.3
23:00 5.7 1.2 5.7 SE 27.8 27.8 31.5 100 850(-0.2/3h) -- -- -- --
22:00 5.7 2.1 5.1 SE 18.5 22.2 24.1 96 850(0.4/3h) -- -- -- --
21:00 6.1 2.4 4.9 SSE 20.4 22.2 27.8 92 850(0.8/3h) -- -- -- --
20:00 5.6 2.5 4.7 SE 14.8 16.7 22.2 94 850(0.8/3h) -- -- -- --
19:00 6.2 2.8 4.1 SSE 18.5 22.2 27.8 86 850(0.3/3h) -- -- -- --
18:00 6.2 2.5 4.8 SSE 20.4 24.1 31.5 91 850(0.0/3h) -- -- -- --
17:00 6.3 2.7 4.1 SSE 20.4 20.4 25.9 86 850(-0.1/3h) -- -- -- --
16:00 6.5 3.4 5.2 SE 16.7 18.5 27.8 91 850(-0.2/3h) -- -- -- --
15:00 6.4 3 5.5 SSE 18.5 22.2 31.5 94 850(0.0/3h) -- -- -- --
14:00 7.3 4.1 4.9 S 18.5 18.5 31.5 85 850(0.1/3h) -- -- -- --
13:00 6.5 3.6 4.0 SSE 14.8 22.2 29.6 84 850(0.4/3h) -- -- -- --
12:00 5.8 2.3 3.0 SSE 18.5 25.9 37.0 82 850(0.6/3h) -- -- -- --
11:00 5.9 2 3.1 SSE 22.2 22.2 29.6 82 850(0.6/3h) -- -- -- --
10:00 6.2 2.8 2.8 SSE 18.5 20.4 31.5 79 850(0.8/3h) -- -- -- --
09:00 6.4 2.6 3.3 SSE 22.2 25.9 37.0 81 850(0.6/3h) -- -- -- --
08:00 6.3 2.5 3.3 SSE 22.2 22.2 33.3 81 850(0.7/3h) -- -- -- --
07:00 5.2 1.1 2.9 SE 22.2 22.2 29.6 85 850(0.7/3h) -- -- -- --
06:00 5.1 1.4 2.5 SE 18.5 24.1 29.6 83 850(0.9/3h) -- -- -- --
05:00 4.7 0.6 0.8 SE 20.4 22.2 25.9 76 850(0.7/3h) -- -- -- --
04:00 4.9 0.5 -1.5 SSE 24.1 24.1 29.6 63 850(0.4/3h) -- -- -- --
03:00 5.4 1.3 -2.0 SSE 22.2 22.2 25.9 59 850(-0.3/3h) -- -- -- --
02:00 5.2 1.7 -2.8 SE 16.7 16.7 24.1 56 850(-0.5/3h) -- -- -- --
01:00 5.3 4.2 -3.2 E 5.6 5.6 13.0 54 850(-0.6/3h) -- -- -- --
00:00 5.3 5.3 -3.7 NO 1.9 35.2 46.3 52 850(-0.1/3h) -- -- -- --

1 Coordinated Universal Time. Actuellement il est 04:00 locale et 02:00 UTC.

2 Le vent souffle depuis la direction indiquée vers la direction oposée.

3 Les rafales max. sont disponible 40 min après l'heure du relevé.

4 Pour les stations d'altitude (plus de 600m) le géopotentiel du niveau le plus proche de la pression obligatoire est indiqué.

5 Les stations disposant d'un diffuseur peuvent indiquer "trace". Cela signifie que des précipitations ont touchés le sol mais que la quantité est inférieure à 0.1 mm.

Copyright

Les données affichées sur cette page sont la propriété exclusive de Météo Suisse.

Récapitulatif de la journée
Température [°C] Vent [km/h] Ensoleillement4 [h] Precipitations totale5 [mm] Pression [Hpa]
Min1 Max.2 Moy.3 Max. Min Max.
4.4 7.3 21.9 46.3 3 h 36 min 0 850.0 850.0

1 Température minimale relevée entre 18:00 UTC la veille et 18:00 UTC le jour donné.

2 Température maximale relevée entre 06:00 UTC le jour donné et 06:00 UTC le lendemain.

3 Vent moyen de la journée basé sur les relevés horaires.

4 Ensoleillement en heures relevé entre 06:00 UTC la veille et 06:00 UTC le jour donné.

5 Précipitations totales tombées entre 06:00 UTC la jour donné et 06:00 UTC le lendemain.

Graphiques horaires